Capt Jack Green — WDE4207 — position and weather

sailwx.info

Track history (hours):
 
Tides and Currents Weather Stations Pressure Air Temp Water Temp Dewpoint Dewpoint Depression Visibility Wind Speed Wind Dir Waves Ship Positions

Capt Jack Green

Owner: Blessey Enterprises, Inc., harahan, LA. More information available from US FCC via Universal Licensing System and Coast Guard Vessel Documentation Center.

Last reported at 2017-Oct-23 05:58 UTC. Time now 2017-Oct-23 06:30 UTC.
Position N 29°47' W 095°05'.

Length 23 m; draft 3 m.

Type: Towing. MMSI: 367350170.

Date/timePositionNaut miles runAvg speedWind from/ knotsBaromVisibWave heightAir tempDewpointWater temp
2017-Oct-23 05:58N 29°47' W 095°05'0 0.0
2017-Oct-23 05:29N 29°47' W 095°05'0 0.0
2017-Oct-23 03:35N 29°47' W 095°05'0 0.3
2017-Oct-23 03:05N 29°47' W 095°05'1 0.3
2017-Oct-22 22:48N 29°46' W 095°05'4 6.5
2017-Oct-22 22:10N 29°43' W 095°01'1 6.4
2017-Oct-22 22:00N 29°42' W 095°01'3 6.0
2017-Oct-22 21:30N 29°40' W 094°58'3 6.4
2017-Oct-22 21:00N 29°37' W 094°58'3 6.1
2017-Oct-22 20:30N 29°37' W 095°01'0 0.1
2017-Oct-22 20:00N 29°36' W 095°01'0 0.0
2017-Oct-22 19:30N 29°36' W 095°01'0 0.0
2017-Oct-22 19:00N 29°36' W 095°01'0 0.0
2017-Oct-22 18:30N 29°36' W 095°01'0 0.0
2017-Oct-22 18:00N 29°36' W 095°01'0 0.0
2017-Oct-22 17:30N 29°36' W 095°01'0 0.0
2017-Oct-22 17:00N 29°36' W 095°01'0 0.0
2017-Oct-22 16:30N 29°36' W 095°01'0 0.0
2017-Oct-22 16:00N 29°36' W 095°01'0 0.0
2017-Oct-22 15:30N 29°36' W 095°01'0 0.0
2017-Oct-22 15:00N 29°36' W 095°01'0 0.0
2017-Oct-22 14:30N 29°36' W 095°01'0 0.0
2017-Oct-22 14:00N 29°36' W 095°01'0 0.0
2017-Oct-22 13:30N 29°36' W 095°01'0 0.2
2017-Oct-22 13:00N 29°37' W 095°01'4 7.3
2017-Oct-22 12:30N 29°37' W 094°57'4 8.2
2017-Oct-22 12:00N 29°33' W 094°55'3 0.2
2017-Oct-22 00:02N 29°31' W 094°53'1 6.3
2017-Oct-21 23:54N 29°32' W 094°53'3 6.5
2017-Oct-21 23:30N 29°34' W 094°55'4 7.0
2017-Oct-21 23:00N 29°37' W 094°57'3 7.1
2017-Oct-21 22:30N 29°37' W 095°01'0 0.3
2017-Oct-21 22:00N 29°37' W 095°01'0 0.0
2017-Oct-21 21:30N 29°37' W 095°01'0 0.0
2017-Oct-21 21:00N 29°37' W 095°01'0 0.0
2017-Oct-21 20:30N 29°37' W 095°01'0 0.0
2017-Oct-21 20:00N 29°37' W 095°01'0 0.0
2017-Oct-21 19:30N 29°37' W 095°01'0 0.0
2017-Oct-21 19:00N 29°37' W 095°01'0 0.0
2017-Oct-21 18:30N 29°37' W 095°01'0 0.0
2017-Oct-21 18:00N 29°37' W 095°01'0 0.0
2017-Oct-21 17:30N 29°36' W 095°01'0 0.0
2017-Oct-21 17:00N 29°36' W 095°01'0 0.0
2017-Oct-21 16:30N 29°36' W 095°01'0 0.0
2017-Oct-21 16:00N 29°36' W 095°01'0 0.3
2017-Oct-21 15:30N 29°37' W 095°01'0 0.2
2017-Oct-21 15:00N 29°37' W 095°01'2 4.3
2017-Oct-21 14:30N 29°37' W 094°59'7 6.5
2017-Oct-21 13:29N 29°32' W 094°54'2 0.3
2017-Oct-21 05:42N 29°30' W 094°52'2 7.6
2017-Oct-21 05:29N 29°31' W 094°53'4 7.8
2017-Oct-21 05:00N 29°35' W 094°56'4 7.6
2017-Oct-21 04:30N 29°38' W 094°58'3 6.8
2017-Oct-21 04:00N 29°41' W 094°59'1 1.7
2017-Oct-21 03:29N 29°41' W 095°00'0 0.0
2017-Oct-21 03:00N 29°41' W 095°00'0 0.0
2017-Oct-21 02:27N 29°41' W 095°00'0 0.0
2017-Oct-21 01:51N 29°41' W 095°00'0 0.0
2017-Oct-21 01:30N 29°41' W 095°00'0 0.0
2017-Oct-21 01:00N 29°41' W 095°00'0 0.0
2017-Oct-21 00:30N 29°41' W 095°00'0 0.0
2017-Oct-21 00:00N 29°41' W 095°00'0 0.0
2017-Oct-20 23:30N 29°41' W 095°00'0 0.0
2017-Oct-20 23:00N 29°41' W 095°00'0 0.0
2017-Oct-20 22:30N 29°41' W 095°00'0 0.0
2017-Oct-20 21:55N 29°41' W 095°00'1 1.9
2017-Oct-20 21:30N 29°42' W 094°60'4 6.4
2017-Oct-20 20:56N 29°44' W 095°03'2 0.1
2017-Oct-19 14:48N 29°45' W 095°04'1 4.7
2017-Oct-19 14:29N 29°44' W 095°03'2 1.8
2017-Oct-19 13:25N 29°43' W 095°01'2 5.2
2017-Oct-19 13:00N 29°42' W 094°59'3 5.7
2017-Oct-19 12:30N 29°39' W 094°58'3 6.5
2017-Oct-19 12:00N 29°36' W 094°57'3 6.7
2017-Oct-19 11:30N 29°33' W 094°55'13 3.2
2017-Oct-19 07:29N 29°26' W 094°42'  
2017-Oct-16 23:57N 29°30' W 094°52'3 6.7
2017-Oct-16 23:30N 29°32' W 094°54'3 6.7
2017-Oct-16 23:00N 29°35' W 094°56'3 5.9
2017-Oct-16 22:30N 29°38' W 094°58'3 6.4
2017-Oct-16 22:00N 29°41' W 094°59'3 6.4
2017-Oct-16 21:29N 29°43' W 095°01'  
2017-Oct-13 13:33N 29°47' W 095°05'0 0.0
2017-Oct-13 13:06N 29°47' W 095°05'0 0.0
2017-Oct-13 12:57N 29°47' W 095°05'0 0.0
2017-Oct-13 08:34N 29°47' W 095°05'0 0.1
2017-Oct-13 08:29N 29°47' W 095°05'0 0.2
2017-Oct-13 07:50N 29°47' W 095°05'0 0.4
2017-Oct-13 07:30N 29°47' W 095°05'0 0.0
2017-Oct-13 07:00N 29°47' W 095°05'0 0.0
2017-Oct-13 06:18N 29°47' W 095°05'  
Track history (hours):
 
Tides and Currents Weather Stations Pressure Air Temp Water Temp Dewpoint Dewpoint Depression Visibility Wind Speed Wind Dir Waves Ship Positions

Capt Jack Green

Owner: Blessey Enterprises, Inc., harahan, LA. More information available from US FCC via Universal Licensing System and Coast Guard Vessel Documentation Center.

Last reported at 2017-Oct-23 05:58 UTC. Time now 2017-Oct-23 06:30 UTC.
Position N 29°47' W 095°05'.

Length 23 m; draft 3 m.

Type: Towing. MMSI: 367350170.

Date/timePositionNaut miles runAvg speedWind from/ knotsBaromVisibWave heightAir tempDewpointWater temp
2017-Oct-23 05:58N 29°47' W 095°05'0 0.0
2017-Oct-23 05:29N 29°47' W 095°05'0 0.0
2017-Oct-23 03:35N 29°47' W 095°05'0 0.3
2017-Oct-23 03:05N 29°47' W 095°05'1 0.3
2017-Oct-22 22:48N 29°46' W 095°05'4 6.5
2017-Oct-22 22:10N 29°43' W 095°01'1 6.4
2017-Oct-22 22:00N 29°42' W 095°01'3 6.0
2017-Oct-22 21:30N 29°40' W 094°58'3 6.4
2017-Oct-22 21:00N 29°37' W 094°58'3 6.1
2017-Oct-22 20:30N 29°37' W 095°01'0 0.1
2017-Oct-22 20:00N 29°36' W 095°01'0 0.0
2017-Oct-22 19:30N 29°36' W 095°01'0 0.0
2017-Oct-22 19:00N 29°36' W 095°01'0 0.0
2017-Oct-22 18:30N 29°36' W 095°01'0 0.0
2017-Oct-22 18:00N 29°36' W 095°01'0 0.0
2017-Oct-22 17:30N 29°36' W 095°01'0 0.0
2017-Oct-22 17:00N 29°36' W 095°01'0 0.0
2017-Oct-22 16:30N 29°36' W 095°01'0 0.0
2017-Oct-22 16:00N 29°36' W 095°01'0 0.0
2017-Oct-22 15:30N 29°36' W 095°01'0 0.0
2017-Oct-22 15:00N 29°36' W 095°01'0 0.0
2017-Oct-22 14:30N 29°36' W 095°01'0 0.0
2017-Oct-22 14:00N 29°36' W 095°01'0 0.0
2017-Oct-22 13:30N 29°36' W 095°01'0 0.2
2017-Oct-22 13:00N 29°37' W 095°01'4 7.3
2017-Oct-22 12:30N 29°37' W 094°57'4 8.2
2017-Oct-22 12:00N 29°33' W 094°55'3 0.2
2017-Oct-22 00:02N 29°31' W 094°53'1 6.3
2017-Oct-21 23:54N 29°32' W 094°53'3 6.5
2017-Oct-21 23:30N 29°34' W 094°55'4 7.0
2017-Oct-21 23:00N 29°37' W 094°57'3 7.1
2017-Oct-21 22:30N 29°37' W 095°01'0 0.3
2017-Oct-21 22:00N 29°37' W 095°01'0 0.0
2017-Oct-21 21:30N 29°37' W 095°01'0 0.0
2017-Oct-21 21:00N 29°37' W 095°01'0 0.0
2017-Oct-21 20:30N 29°37' W 095°01'0 0.0
2017-Oct-21 20:00N 29°37' W 095°01'0 0.0
2017-Oct-21 19:30N 29°37' W 095°01'0 0.0
2017-Oct-21 19:00N 29°37' W 095°01'0 0.0
2017-Oct-21 18:30N 29°37' W 095°01'0 0.0
2017-Oct-21 18:00N 29°37' W 095°01'0 0.0
2017-Oct-21 17:30N 29°36' W 095°01'0 0.0
2017-Oct-21 17:00N 29°36' W 095°01'0 0.0
2017-Oct-21 16:30N 29°36' W 095°01'0 0.0
2017-Oct-21 16:00N 29°36' W 095°01'0 0.3
2017-Oct-21 15:30N 29°37' W 095°01'0 0.2
2017-Oct-21 15:00N 29°37' W 095°01'2 4.3
2017-Oct-21 14:30N 29°37' W 094°59'7 6.5
2017-Oct-21 13:29N 29°32' W 094°54'2 0.3
2017-Oct-21 05:42N 29°30' W 094°52'2 7.6
2017-Oct-21 05:29N 29°31' W 094°53'4 7.8
2017-Oct-21 05:00N 29°35' W 094°56'4 7.6
2017-Oct-21 04:30N 29°38' W 094°58'3 6.8
2017-Oct-21 04:00N 29°41' W 094°59'1 1.7
2017-Oct-21 03:29N 29°41' W 095°00'0 0.0
2017-Oct-21 03:00N 29°41' W 095°00'0 0.0
2017-Oct-21 02:27N 29°41' W 095°00'0 0.0
2017-Oct-21 01:51N 29°41' W 095°00'0 0.0
2017-Oct-21 01:30N 29°41' W 095°00'0 0.0
2017-Oct-21 01:00N 29°41' W 095°00'0 0.0
2017-Oct-21 00:30N 29°41' W 095°00'0 0.0
2017-Oct-21 00:00N 29°41' W 095°00'0 0.0
2017-Oct-20 23:30N 29°41' W 095°00'0 0.0
2017-Oct-20 23:00N 29°41' W 095°00'0 0.0
2017-Oct-20 22:30N 29°41' W 095°00'0 0.0
2017-Oct-20 21:55N 29°41' W 095°00'1 1.9
2017-Oct-20 21:30N 29°42' W 094°60'4 6.4
2017-Oct-20 20:56N 29°44' W 095°03'2 0.1
2017-Oct-19 14:48N 29°45' W 095°04'1 4.7
2017-Oct-19 14:29N 29°44' W 095°03'2 1.8
2017-Oct-19 13:25N 29°43' W 095°01'2 5.2
2017-Oct-19 13:00N 29°42' W 094°59'3 5.7
2017-Oct-19 12:30N 29°39' W 094°58'3 6.5
2017-Oct-19 12:00N 29°36' W 094°57'3 6.7
2017-Oct-19 11:30N 29°33' W 094°55'13 3.2
2017-Oct-19 07:29N 29°26' W 094°42'  
2017-Oct-16 23:57N 29°30' W 094°52'3 6.7
2017-Oct-16 23:30N 29°32' W 094°54'3 6.7
2017-Oct-16 23:00N 29°35' W 094°56'3 5.9
2017-Oct-16 22:30N 29°38' W 094°58'3 6.4
2017-Oct-16 22:00N 29°41' W 094°59'3 6.4
2017-Oct-16 21:29N 29°43' W 095°01'  
2017-Oct-13 13:33N 29°47' W 095°05'0 0.0
2017-Oct-13 13:06N 29°47' W 095°05'0 0.0
2017-Oct-13 12:57N 29°47' W 095°05'0 0.0
2017-Oct-13 08:34N 29°47' W 095°05'0 0.1
2017-Oct-13 08:29N 29°47' W 095°05'0 0.2
2017-Oct-13 07:50N 29°47' W 095°05'0 0.4
2017-Oct-13 07:30N 29°47' W 095°05'0 0.0
2017-Oct-13 07:00N 29°47' W 095°05'0 0.0
2017-Oct-13 06:18N 29°47' W 095°05'  

Dump ship's entire track history